sensor_id;sensor_type;location;lat;lon;timestamp;P1;durP1;ratioP1;P2;durP2;ratioP2
8584;SDS011;7180;52.742;11.420;2022-11-23T00:00:31;26.03;;;22.10;;
8584;SDS011;7180;52.742;11.420;2022-11-23T00:02:57;25.07;;;21.77;;
8584;SDS011;7180;52.742;11.420;2022-11-23T00:05:23;26.47;;;21.77;;
8584;SDS011;7180;52.742;11.420;2022-11-23T00:07:48;27.07;;;21.87;;
8584;SDS011;7180;52.742;11.420;2022-11-23T00:10:14;25.53;;;21.37;;
8584;SDS011;7180;52.742;11.420;2022-11-23T00:12:39;25.53;;;21.27;;
8584;SDS011;7180;52.742;11.420;2022-11-23T00:15:05;30.20;;;22.37;;
8584;SDS011;7180;52.742;11.420;2022-11-23T00:17:30;24.67;;;21.00;;
8584;SDS011;7180;52.742;11.420;2022-11-23T00:19:55;23.80;;;20.33;;
8584;SDS011;7180;52.742;11.420;2022-11-23T00:22:20;24.53;;;21.03;;
8584;SDS011;7180;52.742;11.420;2022-11-23T00:24:46;24.77;;;21.03;;
8584;SDS011;7180;52.742;11.420;2022-11-23T00:27:11;22.90;;;20.50;;
8584;SDS011;7180;52.742;11.420;2022-11-23T00:29:36;23.37;;;20.87;;
8584;SDS011;7180;52.742;11.420;2022-11-23T00:32:01;23.17;;;20.27;;
8584;SDS011;7180;52.742;11.420;2022-11-23T00:34:26;26.00;;;20.80;;
8584;SDS011;7180;52.742;11.420;2022-11-23T00:36:52;25.33;;;21.53;;
8584;SDS011;7180;52.742;11.420;2022-11-23T00:39:17;23.17;;;20.67;;
8584;SDS011;7180;52.742;11.420;2022-11-23T00:41:42;24.37;;;21.13;;
8584;SDS011;7180;52.742;11.420;2022-11-23T00:44:07;23.30;;;20.80;;
8584;SDS011;7180;52.742;11.420;2022-11-23T00:46:32;22.60;;;20.17;;
8584;SDS011;7180;52.742;11.420;2022-11-23T00:48:58;23.73;;;20.30;;
8584;SDS011;7180;52.742;11.420;2022-11-23T00:51:28;23.30;;;20.70;;
8584;SDS011;7180;52.742;11.420;2022-11-23T00:53:53;23.03;;;20.63;;
8584;SDS011;7180;52.742;11.420;2022-11-23T00:56:19;24.13;;;20.87;;
8584;SDS011;7180;52.742;11.420;2022-11-23T00:58:48;22.80;;;20.40;;
8584;SDS011;7180;52.742;11.420;2022-11-23T01:01:14;26.17;;;20.23;;
8584;SDS011;7180;52.742;11.420;2022-11-23T01:03:40;21.33;;;19.03;;
8584;SDS011;7180;52.742;11.420;2022-11-23T01:06:07;22.30;;;19.77;;
8584;SDS011;7180;52.742;11.420;2022-11-23T01:08:33;21.63;;;19.40;;
8584;SDS011;7180;52.742;11.420;2022-11-23T01:10:59;21.23;;;19.07;;
8584;SDS011;7180;52.742;11.420;2022-11-23T01:13:24;23.77;;;19.73;;
8584;SDS011;7180;52.742;11.420;2022-11-23T01:15:49;21.93;;;19.53;;
8584;SDS011;7180;52.742;11.420;2022-11-23T01:18:15;22.77;;;20.27;;
8584;SDS011;7180;52.742;11.420;2022-11-23T01:20:40;22.33;;;19.73;;
8584;SDS011;7180;52.742;11.420;2022-11-23T01:23:05;23.00;;;20.50;;
8584;SDS011;7180;52.742;11.420;2022-11-23T01:25:30;22.27;;;19.97;;
8584;SDS011;7180;52.742;11.420;2022-11-23T01:27:55;23.87;;;19.27;;
8584;SDS011;7180;52.742;11.420;2022-11-23T01:30:21;22.97;;;20.03;;
8584;SDS011;7180;52.742;11.420;2022-11-23T01:32:46;22.33;;;20.03;;
8584;SDS011;7180;52.742;11.420;2022-11-23T01:35:11;21.63;;;19.33;;
8584;SDS011;7180;52.742;11.420;2022-11-23T01:37:36;22.87;;;20.37;;
8584;SDS011;7180;52.742;11.420;2022-11-23T01:40:01;21.70;;;18.80;;
8584;SDS011;7180;52.742;11.420;2022-11-23T01:45:38;22.50;;;18.37;;
8584;SDS011;7180;52.742;11.420;2022-11-23T01:48:15;21.87;;;19.03;;
8584;SDS011;7180;52.742;11.420;2022-11-23T01:50:41;21.90;;;19.70;;
8584;SDS011;7180;52.742;11.420;2022-11-23T01:53:08;22.17;;;19.77;;
8584;SDS011;7180;52.742;11.420;2022-11-23T01:55:33;21.63;;;19.47;;
8584;SDS011;7180;52.742;11.420;2022-11-23T01:57:59;20.40;;;18.30;;
8584;SDS011;7180;52.742;11.420;2022-11-23T02:00:25;21.63;;;19.43;;
8584;SDS011;7180;52.742;11.420;2022-11-23T02:02:52;20.70;;;18.63;;
8584;SDS011;7180;52.742;11.420;2022-11-23T02:05:20;20.43;;;18.53;;
8584;SDS011;7180;52.742;11.420;2022-11-23T02:07:47;21.57;;;19.37;;
8584;SDS011;7180;52.742;11.420;2022-11-23T02:10:14;21.10;;;18.80;;
8584;SDS011;7180;52.742;11.420;2022-11-23T02:12:39;20.50;;;18.47;;
8584;SDS011;7180;52.742;11.420;2022-11-23T02:15:05;20.07;;;17.97;;
8584;SDS011;7180;52.742;11.420;2022-11-23T02:17:31;21.60;;;19.40;;
8584;SDS011;7180;52.742;11.420;2022-11-23T02:20:04;20.70;;;18.60;;
8584;SDS011;7180;52.742;11.420;2022-11-23T02:22:34;19.63;;;17.73;;
8584;SDS011;7180;52.742;11.420;2022-11-23T02:25:05;20.43;;;18.37;;
8584;SDS011;7180;52.742;11.420;2022-11-23T02:27:32;20.70;;;18.70;;
8584;SDS011;7180;52.742;11.420;2022-11-23T02:29:57;19.40;;;17.47;;
8584;SDS011;7180;52.742;11.420;2022-11-23T02:32:24;21.20;;;18.77;;
8584;SDS011;7180;52.742;11.420;2022-11-23T02:34:49;21.67;;;19.33;;
8584;SDS011;7180;52.742;11.420;2022-11-23T02:37:14;22.33;;;19.37;;
8584;SDS011;7180;52.742;11.420;2022-11-23T02:39:40;19.70;;;17.60;;
8584;SDS011;7180;52.742;11.420;2022-11-23T02:42:08;19.73;;;17.73;;
8584;SDS011;7180;52.742;11.420;2022-11-23T02:47:02;21.33;;;19.13;;
8584;SDS011;7180;52.742;11.420;2022-11-23T02:49:28;21.03;;;18.87;;
8584;SDS011;7180;52.742;11.420;2022-11-23T02:51:54;22.23;;;18.40;;
8584;SDS011;7180;52.742;11.420;2022-11-23T02:54:19;18.47;;;16.67;;
8584;SDS011;7180;52.742;11.420;2022-11-23T02:56:44;19.57;;;17.57;;
8584;SDS011;7180;52.742;11.420;2022-11-23T02:59:09;20.40;;;18.40;;
8584;SDS011;7180;52.742;11.420;2022-11-23T03:01:34;20.27;;;18.27;;
8584;SDS011;7180;52.742;11.420;2022-11-23T03:04:00;20.90;;;18.80;;
8584;SDS011;7180;52.742;11.420;2022-11-23T03:06:25;19.40;;;17.50;;
8584;SDS011;7180;52.742;11.420;2022-11-23T03:08:50;20.00;;;18.10;;
8584;SDS011;7180;52.742;11.420;2022-11-23T03:11:15;20.43;;;18.30;;
8584;SDS011;7180;52.742;11.420;2022-11-23T03:13:41;20.10;;;18.13;;
8584;SDS011;7180;52.742;11.420;2022-11-23T03:16:07;20.97;;;18.83;;
8584;SDS011;7180;52.742;11.420;2022-11-23T03:18:32;21.93;;;18.63;;
8584;SDS011;7180;52.742;11.420;2022-11-23T03:21:04;20.80;;;18.67;;
8584;SDS011;7180;52.742;11.420;2022-11-23T03:23:30;20.40;;;18.40;;
8584;SDS011;7180;52.742;11.420;2022-11-23T03:25:56;20.50;;;18.40;;
8584;SDS011;7180;52.742;11.420;2022-11-23T03:28:21;20.67;;;18.47;;
8584;SDS011;7180;52.742;11.420;2022-11-23T03:30:46;21.47;;;19.37;;
8584;SDS011;7180;52.742;11.420;2022-11-23T03:33:12;21.33;;;18.93;;
8584;SDS011;7180;52.742;11.420;2022-11-23T03:35:37;20.40;;;17.97;;
8584;SDS011;7180;52.742;11.420;2022-11-23T03:38:02;21.10;;;18.57;;
8584;SDS011;7180;52.742;11.420;2022-11-23T03:40:27;20.20;;;17.50;;
8584;SDS011;7180;52.742;11.420;2022-11-23T03:42:53;20.50;;;18.40;;
8584;SDS011;7180;52.742;11.420;2022-11-23T03:45:18;19.93;;;17.77;;
8584;SDS011;7180;52.742;11.420;2022-11-23T03:47:43;20.10;;;18.10;;
8584;SDS011;7180;52.742;11.420;2022-11-23T03:50:08;19.97;;;17.97;;
8584;SDS011;7180;52.742;11.420;2022-11-23T03:52:34;19.50;;;17.43;;
8584;SDS011;7180;52.742;11.420;2022-11-23T03:54:59;19.93;;;17.83;;
8584;SDS011;7180;52.742;11.420;2022-11-23T03:57:24;19.90;;;17.83;;
8584;SDS011;7180;52.742;11.420;2022-11-23T03:59:49;20.83;;;17.20;;
8584;SDS011;7180;52.742;11.420;2022-11-23T04:02:14;20.50;;;18.50;;
8584;SDS011;7180;52.742;11.420;2022-11-23T04:04:40;20.07;;;17.13;;
8584;SDS011;7180;52.742;11.420;2022-11-23T04:07:05;20.93;;;18.03;;
8584;SDS011;7180;52.742;11.420;2022-11-23T04:09:30;19.80;;;17.80;;
8584;SDS011;7180;52.742;11.420;2022-11-23T04:11:55;18.53;;;16.73;;
8584;SDS011;7180;52.742;11.420;2022-11-23T04:14:20;20.93;;;18.30;;
8584;SDS011;7180;52.742;11.420;2022-11-23T04:16:46;19.00;;;17.20;;
8584;SDS011;7180;52.742;11.420;2022-11-23T04:19:11;19.30;;;17.40;;
8584;SDS011;7180;52.742;11.420;2022-11-23T04:21:36;19.07;;;17.30;;
8584;SDS011;7180;52.742;11.420;2022-11-23T04:24:01;18.30;;;16.40;;
8584;SDS011;7180;52.742;11.420;2022-11-23T04:26:27;18.77;;;16.87;;
8584;SDS011;7180;52.742;11.420;2022-11-23T04:28:52;19.40;;;17.40;;
8584;SDS011;7180;52.742;11.420;2022-11-23T04:31:17;20.07;;;17.93;;
8584;SDS011;7180;52.742;11.420;2022-11-23T04:33:42;19.83;;;17.80;;
8584;SDS011;7180;52.742;11.420;2022-11-23T04:36:08;18.40;;;16.70;;
8584;SDS011;7180;52.742;11.420;2022-11-23T04:38:33;19.37;;;17.47;;
8584;SDS011;7180;52.742;11.420;2022-11-23T04:40:58;20.37;;;18.27;;
8584;SDS011;7180;52.742;11.420;2022-11-23T04:43:23;20.67;;;16.83;;
8584;SDS011;7180;52.742;11.420;2022-11-23T04:45:48;19.43;;;17.30;;
8584;SDS011;7180;52.742;11.420;2022-11-23T04:48:14;17.70;;;16.00;;
8584;SDS011;7180;52.742;11.420;2022-11-23T04:50:39;17.83;;;16.13;;
8584;SDS011;7180;52.742;11.420;2022-11-23T04:53:06;18.50;;;16.67;;
8584;SDS011;7180;52.742;11.420;2022-11-23T04:55:31;18.70;;;16.80;;
8584;SDS011;7180;52.742;11.420;2022-11-23T04:57:56;20.03;;;16.83;;
8584;SDS011;7180;52.742;11.420;2022-11-23T05:00:21;18.17;;;16.57;;
8584;SDS011;7180;52.742;11.420;2022-11-23T05:02:46;18.90;;;17.00;;
8584;SDS011;7180;52.742;11.420;2022-11-23T05:05:11;18.83;;;16.93;;
8584;SDS011;7180;52.742;11.420;2022-11-23T05:07:37;18.40;;;16.47;;
8584;SDS011;7180;52.742;11.420;2022-11-23T05:10:02;18.33;;;16.43;;
8584;SDS011;7180;52.742;11.420;2022-11-23T05:12:28;18.03;;;16.30;;
8584;SDS011;7180;52.742;11.420;2022-11-23T05:14:53;17.60;;;15.83;;
8584;SDS011;7180;52.742;11.420;2022-11-23T05:17:18;18.27;;;16.47;;
8584;SDS011;7180;52.742;11.420;2022-11-23T05:19:43;18.33;;;16.43;;
8584;SDS011;7180;52.742;11.420;2022-11-23T05:22:09;18.10;;;16.40;;
8584;SDS011;7180;52.742;11.420;2022-11-23T05:24:34;18.17;;;16.37;;
8584;SDS011;7180;52.742;11.420;2022-11-23T05:26:59;17.90;;;16.23;;
8584;SDS011;7180;52.742;11.420;2022-11-23T05:29:24;18.27;;;16.57;;
8584;SDS011;7180;52.742;11.420;2022-11-23T05:31:50;17.10;;;15.50;;
8584;SDS011;7180;52.742;11.420;2022-11-23T05:34:15;18.03;;;16.20;;
8584;SDS011;7180;52.742;11.420;2022-11-23T05:36:40;18.73;;;16.93;;
8584;SDS011;7180;52.742;11.420;2022-11-23T05:39:05;19.13;;;17.13;;
8584;SDS011;7180;52.742;11.420;2022-11-23T05:41:30;18.30;;;16.60;;
8584;SDS011;7180;52.742;11.420;2022-11-23T05:43:56;18.37;;;16.57;;
8584;SDS011;7180;52.742;11.420;2022-11-23T05:46:21;18.73;;;16.70;;
8584;SDS011;7180;52.742;11.420;2022-11-23T05:48:46;18.10;;;16.43;;
8584;SDS011;7180;52.742;11.420;2022-11-23T05:51:11;18.40;;;16.60;;
8584;SDS011;7180;52.742;11.420;2022-11-23T05:53:36;18.33;;;16.53;;
8584;SDS011;7180;52.742;11.420;2022-11-23T05:56:02;17.83;;;16.13;;
8584;SDS011;7180;52.742;11.420;2022-11-23T05:58:27;18.00;;;16.30;;
8584;SDS011;7180;52.742;11.420;2022-11-23T06:00:56;18.83;;;16.97;;
8584;SDS011;7180;52.742;11.420;2022-11-23T06:03:21;17.97;;;16.17;;
8584;SDS011;7180;52.742;11.420;2022-11-23T06:05:46;18.53;;;16.57;;
8584;SDS011;7180;52.742;11.420;2022-11-23T06:08:11;18.20;;;16.60;;
8584;SDS011;7180;52.742;11.420;2022-11-23T06:10:37;18.03;;;16.37;;
8584;SDS011;7180;52.742;11.420;2022-11-23T06:13:02;18.10;;;16.50;;
8584;SDS011;7180;52.742;11.420;2022-11-23T06:15:28;17.90;;;16.40;;
8584;SDS011;7180;52.742;11.420;2022-11-23T06:17:57;18.60;;;16.80;;
8584;SDS011;7180;52.742;11.420;2022-11-23T06:20:22;18.93;;;17.03;;
8584;SDS011;7180;52.742;11.420;2022-11-23T06:22:51;17.67;;;15.93;;
8584;SDS011;7180;52.742;11.420;2022-11-23T06:25:17;18.27;;;16.47;;
8584;SDS011;7180;52.742;11.420;2022-11-23T06:27:42;19.07;;;17.03;;
8584;SDS011;7180;52.742;11.420;2022-11-23T06:30:07;17.27;;;15.77;;
8584;SDS011;7180;52.742;11.420;2022-11-23T06:32:32;18.30;;;16.57;;
8584;SDS011;7180;52.742;11.420;2022-11-23T06:34:58;17.90;;;16.27;;
8584;SDS011;7180;52.742;11.420;2022-11-23T06:37:23;16.63;;;15.13;;
8584;SDS011;7180;52.742;11.420;2022-11-23T06:39:48;17.10;;;15.43;;
8584;SDS011;7180;52.742;11.420;2022-11-23T06:42:13;16.83;;;15.23;;
8584;SDS011;7180;52.742;11.420;2022-11-23T06:44:38;17.33;;;15.70;;
8584;SDS011;7180;52.742;11.420;2022-11-23T06:47:04;16.97;;;15.43;;
8584;SDS011;7180;52.742;11.420;2022-11-23T06:49:30;16.60;;;15.00;;
8584;SDS011;7180;52.742;11.420;2022-11-23T06:51:55;15.70;;;14.40;;
8584;SDS011;7180;52.742;11.420;2022-11-23T06:54:20;15.97;;;14.47;;
8584;SDS011;7180;52.742;11.420;2022-11-23T06:56:45;16.27;;;14.77;;
8584;SDS011;7180;52.742;11.420;2022-11-23T06:59:10;16.63;;;15.13;;
8584;SDS011;7180;52.742;11.420;2022-11-23T07:01:36;16.60;;;15.10;;
8584;SDS011;7180;52.742;11.420;2022-11-23T07:04:01;16.73;;;15.03;;
8584;SDS011;7180;52.742;11.420;2022-11-23T07:06:26;16.87;;;15.13;;
8584;SDS011;7180;52.742;11.420;2022-11-23T07:08:52;16.60;;;15.07;;
8584;SDS011;7180;52.742;11.420;2022-11-23T07:11:18;16.77;;;15.27;;
8584;SDS011;7180;52.742;11.420;2022-11-23T07:13:43;17.47;;;15.73;;
8584;SDS011;7180;52.742;11.420;2022-11-23T07:16:08;17.73;;;16.03;;
8584;SDS011;7180;52.742;11.420;2022-11-23T07:18:33;17.10;;;15.53;;
8584;SDS011;7180;52.742;11.420;2022-11-23T07:20:59;17.00;;;15.40;;
8584;SDS011;7180;52.742;11.420;2022-11-23T07:23:24;17.90;;;16.00;;
8584;SDS011;7180;52.742;11.420;2022-11-23T07:25:50;16.50;;;14.90;;
8584;SDS011;7180;52.742;11.420;2022-11-23T07:28:15;17.10;;;15.47;;
8584;SDS011;7180;52.742;11.420;2022-11-23T07:30:40;17.00;;;15.47;;
8584;SDS011;7180;52.742;11.420;2022-11-23T07:33:07;17.63;;;15.83;;
8584;SDS011;7180;52.742;11.420;2022-11-23T07:35:32;17.63;;;15.83;;
8584;SDS011;7180;52.742;11.420;2022-11-23T07:37:58;17.40;;;15.70;;
8584;SDS011;7180;52.742;11.420;2022-11-23T07:40:23;16.30;;;14.83;;
8584;SDS011;7180;52.742;11.420;2022-11-23T07:42:48;16.73;;;15.20;;
8584;SDS011;7180;52.742;11.420;2022-11-23T07:45:14;17.17;;;15.57;;
8584;SDS011;7180;52.742;11.420;2022-11-23T07:47:39;16.90;;;15.07;;
8584;SDS011;7180;52.742;11.420;2022-11-23T07:50:05;16.70;;;15.07;;
8584;SDS011;7180;52.742;11.420;2022-11-23T07:52:30;18.80;;;16.80;;
8584;SDS011;7180;52.742;11.420;2022-11-23T07:54:56;16.57;;;15.03;;
8584;SDS011;7180;52.742;11.420;2022-11-23T07:57:21;16.43;;;14.83;;
8584;SDS011;7180;52.742;11.420;2022-11-23T07:59:46;16.57;;;14.97;;
8584;SDS011;7180;52.742;11.420;2022-11-23T08:02:12;17.73;;;15.87;;
8584;SDS011;7180;52.742;11.420;2022-11-23T08:04:38;16.40;;;15.00;;
8584;SDS011;7180;52.742;11.420;2022-11-23T08:07:03;16.63;;;15.13;;
8584;SDS011;7180;52.742;11.420;2022-11-23T08:09:28;16.70;;;15.20;;
8584;SDS011;7180;52.742;11.420;2022-11-23T08:11:53;15.93;;;14.50;;
8584;SDS011;7180;52.742;11.420;2022-11-23T08:14:19;16.40;;;14.87;;
8584;SDS011;7180;52.742;11.420;2022-11-23T08:16:47;16.77;;;15.17;;
8584;SDS011;7180;52.742;11.420;2022-11-23T08:19:12;16.90;;;15.30;;
8584;SDS011;7180;52.742;11.420;2022-11-23T08:21:37;16.50;;;14.93;;
8584;SDS011;7180;52.742;11.420;2022-11-23T08:24:03;16.30;;;14.67;;
8584;SDS011;7180;52.742;11.420;2022-11-23T08:26:28;15.83;;;14.47;;
8584;SDS011;7180;52.742;11.420;2022-11-23T08:28:54;15.73;;;14.37;;
8584;SDS011;7180;52.742;11.420;2022-11-23T08:31:21;16.37;;;14.97;;
8584;SDS011;7180;52.742;11.420;2022-11-23T08:33:46;16.40;;;15.00;;
8584;SDS011;7180;52.742;11.420;2022-11-23T08:36:11;15.80;;;14.50;;
8584;SDS011;7180;52.742;11.420;2022-11-23T08:38:36;16.07;;;14.60;;
8584;SDS011;7180;52.742;11.420;2022-11-23T08:41:02;15.83;;;14.33;;
8584;SDS011;7180;52.742;11.420;2022-11-23T08:43:28;16.23;;;14.67;;
8584;SDS011;7180;52.742;11.420;2022-11-23T08:45:57;15.37;;;13.90;;
8584;SDS011;7180;52.742;11.420;2022-11-23T08:48:22;15.77;;;14.27;;
8584;SDS011;7180;52.742;11.420;2022-11-23T08:50:47;15.50;;;14.20;;
8584;SDS011;7180;52.742;11.420;2022-11-23T08:53:13;15.63;;;14.33;;
8584;SDS011;7180;52.742;11.420;2022-11-23T08:55:38;14.63;;;13.43;;
8584;SDS011;7180;52.742;11.420;2022-11-23T08:58:03;14.23;;;13.03;;
8584;SDS011;7180;52.742;11.420;2022-11-23T09:00:28;15.70;;;14.23;;
8584;SDS011;7180;52.742;11.420;2022-11-23T09:02:54;14.93;;;13.60;;
8584;SDS011;7180;52.742;11.420;2022-11-23T09:05:19;15.77;;;14.40;;
8584;SDS011;7180;52.742;11.420;2022-11-23T09:07:44;15.73;;;14.23;;
8584;SDS011;7180;52.742;11.420;2022-11-23T09:10:10;14.83;;;13.43;;
8584;SDS011;7180;52.742;11.420;2022-11-23T09:12:35;14.77;;;13.37;;
8584;SDS011;7180;52.742;11.420;2022-11-23T09:15:00;14.63;;;13.23;;
8584;SDS011;7180;52.742;11.420;2022-11-23T09:17:25;14.70;;;13.33;;
8584;SDS011;7180;52.742;11.420;2022-11-23T09:19:50;14.80;;;13.50;;
8584;SDS011;7180;52.742;11.420;2022-11-23T09:22:16;14.27;;;12.97;;
8584;SDS011;7180;52.742;11.420;2022-11-23T09:24:41;14.10;;;12.87;;
8584;SDS011;7180;52.742;11.420;2022-11-23T09:27:06;14.63;;;13.13;;
8584;SDS011;7180;52.742;11.420;2022-11-23T09:29:32;14.67;;;13.27;;
8584;SDS011;7180;52.742;11.420;2022-11-23T09:31:57;14.40;;;13.13;;
8584;SDS011;7180;52.742;11.420;2022-11-23T09:34:23;13.87;;;12.73;;
8584;SDS011;7180;52.742;11.420;2022-11-23T09:36:48;14.77;;;13.37;;
8584;SDS011;7180;52.742;11.420;2022-11-23T09:39:13;14.47;;;13.20;;
8584;SDS011;7180;52.742;11.420;2022-11-23T09:44:10;15.03;;;13.63;;
8584;SDS011;7180;52.742;11.420;2022-11-23T09:49:26;14.90;;;13.63;;
8584;SDS011;7180;52.742;11.420;2022-11-23T09:51:56;14.67;;;13.40;;
8584;SDS011;7180;52.742;11.420;2022-11-23T09:54:23;14.73;;;13.40;;
8584;SDS011;7180;52.742;11.420;2022-11-23T09:56:50;15.10;;;13.83;;
8584;SDS011;7180;52.742;11.420;2022-11-23T09:59:25;14.23;;;13.13;;
8584;SDS011;7180;52.742;11.420;2022-11-23T10:01:52;14.70;;;13.30;;
8584;SDS011;7180;52.742;11.420;2022-11-23T10:04:17;14.20;;;12.97;;
8584;SDS011;7180;52.742;11.420;2022-11-23T10:06:43;14.30;;;13.20;;
8584;SDS011;7180;52.742;11.420;2022-11-23T10:11:48;12.90;;;11.90;;
8584;SDS011;7180;52.742;11.420;2022-11-23T10:19:54;14.23;;;12.97;;
8584;SDS011;7180;52.742;11.420;2022-11-23T10:22:24;13.73;;;12.53;;
8584;SDS011;7180;52.742;11.420;2022-11-23T10:24:52;15.30;;;14.00;;
8584;SDS011;7180;52.742;11.420;2022-11-23T10:27:18;13.93;;;12.60;;
8584;SDS011;7180;52.742;11.420;2022-11-23T10:29:44;13.70;;;12.53;;
8584;SDS011;7180;52.742;11.420;2022-11-23T10:32:28;14.90;;;13.70;;
8584;SDS011;7180;52.742;11.420;2022-11-23T10:35:11;20.00;;;17.27;;
8584;SDS011;7180;52.742;11.420;2022-11-23T10:37:37;14.80;;;13.60;;
8584;SDS011;7180;52.742;11.420;2022-11-23T10:40:03;14.73;;;13.43;;
8584;SDS011;7180;52.742;11.420;2022-11-23T10:44:53;14.38;;;13.10;;
8584;SDS011;7180;52.742;11.420;2022-11-23T10:47:32;13.80;;;12.67;;
8584;SDS011;7180;52.742;11.420;2022-11-23T10:49:58;14.60;;;13.17;;
8584;SDS011;7180;52.742;11.420;2022-11-23T10:52:27;13.30;;;12.23;;
8584;SDS011;7180;52.742;11.420;2022-11-23T10:54:53;13.47;;;12.27;;
8584;SDS011;7180;52.742;11.420;2022-11-23T10:57:30;12.23;;;11.13;;
8584;SDS011;7180;52.742;11.420;2022-11-23T10:59:56;14.37;;;13.10;;
8584;SDS011;7180;52.742;11.420;2022-11-23T11:02:23;13.27;;;12.37;;
8584;SDS011;7180;52.742;11.420;2022-11-23T11:04:48;13.20;;;12.20;;
8584;SDS011;7180;52.742;11.420;2022-11-23T11:07:18;12.67;;;11.47;;
8584;SDS011;7180;52.742;11.420;2022-11-23T11:09:48;12.97;;;11.87;;
8584;SDS011;7180;52.742;11.420;2022-11-23T11:12:16;12.70;;;11.60;;
8584;SDS011;7180;52.742;11.420;2022-11-23T11:15:27;12.13;;;11.07;;
8584;SDS011;7180;52.742;11.420;2022-11-23T11:17:34;11.17;;;10.23;;
8584;SDS011;7180;52.742;11.420;2022-11-23T11:19:59;13.10;;;12.10;;
8584;SDS011;7180;52.742;11.420;2022-11-23T11:22:31;11.20;;;10.33;;
8584;SDS011;7180;52.742;11.420;2022-11-23T11:24:57;12.50;;;11.60;;
8584;SDS011;7180;52.742;11.420;2022-11-23T11:27:23;12.67;;;11.60;;
8584;SDS011;7180;52.742;11.420;2022-11-23T11:30:03;12.60;;;11.60;;
8584;SDS011;7180;52.742;11.420;2022-11-23T11:35:37;14.73;;;13.43;;
8584;SDS011;7180;52.742;11.420;2022-11-23T11:38:20;15.67;;;14.27;;
8584;SDS011;7180;52.742;11.420;2022-11-23T11:40:47;15.50;;;14.07;;
8584;SDS011;7180;52.742;11.420;2022-11-23T11:43:20;14.43;;;13.13;;
8584;SDS011;7180;52.742;11.420;2022-11-23T11:45:47;14.00;;;12.80;;
8584;SDS011;7180;52.742;11.420;2022-11-23T11:48:33;12.70;;;11.60;;
8584;SDS011;7180;52.742;11.420;2022-11-23T11:51:02;13.30;;;12.17;;
8584;SDS011;7180;52.742;11.420;2022-11-23T11:53:35;12.63;;;11.73;;
8584;SDS011;7180;52.742;11.420;2022-11-23T11:58:27;11.77;;;10.77;;
8584;SDS011;7180;52.742;11.420;2022-11-23T12:00:55;14.03;;;12.80;;
8584;SDS011;7180;52.742;11.420;2022-11-23T12:05:58;13.37;;;12.03;;
8584;SDS011;7180;52.742;11.420;2022-11-23T12:08:32;11.77;;;10.80;;
8584;SDS011;7180;52.742;11.420;2022-11-23T12:10:59;12.67;;;11.77;;
8584;SDS011;7180;52.742;11.420;2022-11-23T12:13:36;12.20;;;11.10;;
8584;SDS011;7180;52.742;11.420;2022-11-23T12:23:43;14.50;;;13.20;;
8584;SDS011;7180;52.742;11.420;2022-11-23T12:26:25;13.73;;;12.63;;
8584;SDS011;7180;52.742;11.420;2022-11-23T12:31:44;13.60;;;12.43;;
8584;SDS011;7180;52.742;11.420;2022-11-23T12:37:01;13.97;;;12.97;;
8584;SDS011;7180;52.742;11.420;2022-11-23T12:49:36;14.10;;;12.73;;
8584;SDS011;7180;52.742;11.420;2022-11-23T12:52:15;14.43;;;13.10;;
8584;SDS011;7180;52.742;11.420;2022-11-23T12:57:23;14.30;;;13.10;;
8584;SDS011;7180;52.742;11.420;2022-11-23T13:02:43;14.13;;;12.93;;
8584;SDS011;7180;52.742;11.420;2022-11-23T13:07:56;14.00;;;12.60;;
8584;SDS011;7180;52.742;11.420;2022-11-23T13:10:28;14.10;;;12.80;;
8584;SDS011;7180;52.742;11.420;2022-11-23T13:13:00;14.10;;;12.90;;
8584;SDS011;7180;52.742;11.420;2022-11-23T13:20:47;13.73;;;12.60;;
8584;SDS011;7180;52.742;11.420;2022-11-23T13:23:13;14.47;;;13.07;;
8584;SDS011;7180;52.742;11.420;2022-11-23T13:25:38;14.90;;;13.60;;
8584;SDS011;7180;52.742;11.420;2022-11-23T13:28:04;14.30;;;13.07;;
8584;SDS011;7180;52.742;11.420;2022-11-23T13:31:16;13.47;;;12.33;;
8584;SDS011;7180;52.742;11.420;2022-11-23T13:33:35;12.70;;;11.80;;
8584;SDS011;7180;52.742;11.420;2022-11-23T13:36:01;13.67;;;12.50;;
8584;SDS011;7180;52.742;11.420;2022-11-23T13:38:27;13.83;;;12.60;;
8584;SDS011;7180;52.742;11.420;2022-11-23T13:40:59;13.67;;;12.37;;
8584;SDS011;7180;52.742;11.420;2022-11-23T13:43:28;13.77;;;12.53;;
8584;SDS011;7180;52.742;11.420;2022-11-23T13:48:44;13.50;;;12.40;;
8584;SDS011;7180;52.742;11.420;2022-11-23T13:51:10;13.20;;;12.07;;
8584;SDS011;7180;52.742;11.420;2022-11-23T13:53:39;13.40;;;12.33;;
8584;SDS011;7180;52.742;11.420;2022-11-23T14:04:30;14.50;;;13.17;;
8584;SDS011;7180;52.742;11.420;2022-11-23T14:07:08;13.87;;;12.57;;
8584;SDS011;7180;52.742;11.420;2022-11-23T14:09:50;15.37;;;14.07;;
8584;SDS011;7180;52.742;11.420;2022-11-23T14:22:42;13.63;;;12.63;;
8584;SDS011;7180;52.742;11.420;2022-11-23T14:25:19;13.90;;;12.90;;
8584;SDS011;7180;52.742;11.420;2022-11-23T14:28:28;13.73;;;12.40;;
8584;SDS011;7180;52.742;11.420;2022-11-23T14:33:13;12.83;;;11.67;;
8584;SDS011;7180;52.742;11.420;2022-11-23T14:36:03;13.73;;;12.50;;
8584;SDS011;7180;52.742;11.420;2022-11-23T14:41:07;12.30;;;11.40;;
8584;SDS011;7180;52.742;11.420;2022-11-23T14:43:33;13.23;;;12.30;;
8584;SDS011;7180;52.742;11.420;2022-11-23T14:46:00;12.43;;;11.50;;
8584;SDS011;7180;52.742;11.420;2022-11-23T14:48:31;13.33;;;12.00;;
8584;SDS011;7180;52.742;11.420;2022-11-23T14:50:57;13.17;;;12.00;;
8584;SDS011;7180;52.742;11.420;2022-11-23T14:53:29;12.97;;;11.90;;
8584;SDS011;7180;52.742;11.420;2022-11-23T14:55:56;13.37;;;12.17;;
8584;SDS011;7180;52.742;11.420;2022-11-23T14:58:22;13.67;;;12.57;;
8584;SDS011;7180;52.742;11.420;2022-11-23T15:00:49;13.10;;;12.00;;
8584;SDS011;7180;52.742;11.420;2022-11-23T15:03:17;14.20;;;13.00;;
8584;SDS011;7180;52.742;11.420;2022-11-23T15:05:43;13.73;;;12.60;;
8584;SDS011;7180;52.742;11.420;2022-11-23T15:13:22;14.03;;;12.77;;
8584;SDS011;7180;52.742;11.420;2022-11-23T15:15:49;14.77;;;13.47;;
8584;SDS011;7180;52.742;11.420;2022-11-23T15:18:25;12.77;;;11.80;;
8584;SDS011;7180;52.742;11.420;2022-11-23T15:20:50;13.93;;;12.70;;
8584;SDS011;7180;52.742;11.420;2022-11-23T15:23:18;14.33;;;12.83;;
8584;SDS011;7180;52.742;11.420;2022-11-23T15:25:51;14.77;;;13.47;;
8584;SDS011;7180;52.742;11.420;2022-11-23T15:28:16;14.77;;;13.33;;
8584;SDS011;7180;52.742;11.420;2022-11-23T15:30:43;15.97;;;14.30;;
8584;SDS011;7180;52.742;11.420;2022-11-23T15:33:08;15.27;;;14.03;;
8584;SDS011;7180;52.742;11.420;2022-11-23T15:35:36;14.87;;;13.43;;
8584;SDS011;7180;52.742;11.420;2022-11-23T15:38:02;15.67;;;13.33;;
8584;SDS011;7180;52.742;11.420;2022-11-23T15:40:29;14.27;;;13.07;;
8584;SDS011;7180;52.742;11.420;2022-11-23T15:42:54;13.47;;;12.37;;
8584;SDS011;7180;52.742;11.420;2022-11-23T15:45:32;13.13;;;11.83;;
8584;SDS011;7180;52.742;11.420;2022-11-23T15:47:59;13.73;;;12.33;;
8584;SDS011;7180;52.742;11.420;2022-11-23T15:50:24;13.53;;;12.23;;
8584;SDS011;7180;52.742;11.420;2022-11-23T15:52:49;13.03;;;11.93;;
8584;SDS011;7180;52.742;11.420;2022-11-23T15:55:15;13.47;;;12.27;;
8584;SDS011;7180;52.742;11.420;2022-11-23T15:57:40;14.53;;;13.23;;
8584;SDS011;7180;52.742;11.420;2022-11-23T16:00:07;15.10;;;13.60;;
8584;SDS011;7180;52.742;11.420;2022-11-23T16:02:33;14.20;;;13.00;;
8584;SDS011;7180;52.742;11.420;2022-11-23T16:07:29;14.70;;;13.30;;
8584;SDS011;7180;52.742;11.420;2022-11-23T16:13:05;14.33;;;13.03;;
8584;SDS011;7180;52.742;11.420;2022-11-23T16:17:58;14.57;;;13.33;;